createdAt,value
2022-11-20T00:01:20.137Z,99.90
2022-11-20T00:03:22.168Z,99.90
2022-11-20T00:05:23.857Z,99.90
2022-11-20T00:07:25.571Z,99.90
2022-11-20T00:09:27.491Z,99.90
2022-11-20T00:11:30.583Z,99.90
2022-11-20T00:13:32.693Z,99.90
2022-11-20T00:15:34.817Z,99.90
2022-11-20T00:17:36.573Z,99.90
2022-11-20T00:19:38.189Z,99.90
2022-11-20T00:21:39.910Z,99.90
2022-11-20T00:23:42.401Z,99.90
2022-11-20T00:25:44.055Z,99.90
2022-11-20T00:27:45.772Z,99.90
2022-11-20T00:29:47.525Z,99.90
2022-11-20T00:31:49.179Z,99.90
2022-11-20T00:33:51.179Z,99.90
2022-11-20T00:35:52.821Z,99.90
2022-11-20T00:37:54.829Z,99.90
2022-11-20T00:39:56.689Z,99.90
2022-11-20T00:41:58.568Z,99.90
2022-11-20T00:44:00.308Z,99.90
2022-11-20T00:46:04.749Z,99.90
2022-11-20T00:48:06.545Z,99.90
2022-11-20T00:50:08.777Z,99.90
2022-11-20T00:52:10.490Z,99.90
2022-11-20T00:54:12.172Z,99.90
2022-11-20T00:56:16.340Z,99.90
2022-11-20T00:58:17.974Z,99.90
2022-11-20T01:00:19.700Z,99.90
2022-11-20T01:02:21.493Z,99.90
2022-11-20T01:04:23.233Z,99.90
2022-11-20T01:06:30.836Z,99.90
2022-11-20T01:08:34.059Z,99.90
2022-11-20T01:10:35.903Z,99.90
2022-11-20T01:12:37.674Z,99.90
2022-11-20T01:14:39.452Z,99.90
2022-11-20T01:16:47.818Z,99.90
2022-11-20T01:18:51.696Z,99.90
2022-11-20T01:20:53.334Z,99.90
2022-11-20T01:22:54.961Z,99.90
2022-11-20T01:24:56.610Z,99.90
2022-11-20T01:26:58.381Z,99.90
2022-11-20T01:29:01.426Z,99.90
2022-11-20T01:31:11.022Z,99.90
2022-11-20T01:33:12.675Z,99.90
2022-11-20T01:35:14.371Z,99.90
2022-11-20T01:37:16.145Z,99.90
2022-11-20T01:39:20.913Z,99.90
2022-11-20T01:41:42.990Z,99.90
2022-11-20T01:43:44.866Z,99.90
2022-11-20T01:46:15.162Z,99.90
2022-11-20T01:48:18.181Z,99.90
2022-11-20T01:50:25.041Z,99.90
2022-11-20T01:52:42.190Z,99.90
2022-11-20T01:54:50.101Z,99.90
2022-11-20T01:56:54.060Z,99.90
2022-11-20T01:58:59.570Z,99.90
2022-11-20T02:01:01.555Z,99.90
2022-11-20T02:03:08.035Z,99.90
2022-11-20T05:04:03.642Z,99.90
2022-11-20T05:06:07.260Z,99.90
2022-11-20T05:08:08.950Z,99.90
2022-11-20T05:10:10.704Z,99.90
2022-11-20T05:12:12.652Z,99.90
2022-11-20T05:14:14.376Z,99.90
2022-11-20T05:16:21.187Z,99.90
2022-11-20T05:18:23.133Z,99.90
2022-11-20T05:20:24.772Z,99.90
2022-11-20T05:22:26.472Z,99.90
2022-11-20T05:24:28.149Z,99.90
2022-11-20T05:26:29.906Z,99.90
2022-11-20T05:28:32.459Z,99.90
2022-11-20T05:30:34.176Z,99.90
2022-11-20T05:32:35.991Z,99.90
2022-11-20T05:34:37.715Z,99.90
2022-11-20T05:36:39.331Z,99.90
2022-11-20T05:38:41.811Z,99.90
2022-11-20T05:40:43.772Z,99.90
2022-11-20T05:42:45.401Z,99.90
2022-11-20T05:44:47.181Z,99.90
2022-11-20T05:46:49.011Z,99.90
2022-11-20T05:48:50.732Z,99.90
2022-11-20T05:50:52.504Z,99.90
2022-11-20T05:52:54.304Z,99.90
2022-11-20T05:54:56.366Z,99.90
2022-11-20T05:56:58.093Z,99.90
2022-11-20T05:58:59.768Z,99.90
2022-11-20T06:01:12.451Z,99.90
2022-11-20T06:03:14.338Z,99.90
2022-11-20T06:05:16.158Z,99.90
2022-11-20T06:07:18.048Z,99.90
2022-11-20T06:09:19.987Z,99.90
2022-11-20T06:11:22.048Z,99.90
2022-11-20T06:13:23.945Z,99.90
2022-11-20T06:15:25.959Z,99.90
2022-11-20T06:17:27.785Z,99.90
2022-11-20T06:19:29.537Z,99.90
2022-11-20T06:21:31.150Z,99.90
2022-11-20T06:23:34.044Z,99.90
2022-11-20T06:25:42.447Z,99.90
2022-11-20T06:27:44.068Z,99.90
2022-11-20T06:29:45.836Z,99.90
2022-11-20T06:31:47.500Z,99.90
2022-11-20T06:33:49.637Z,99.90
2022-11-20T06:35:55.498Z,99.90
2022-11-20T06:38:00.211Z,99.90
2022-11-20T06:40:01.911Z,99.90
2022-11-20T06:42:03.753Z,99.90
2022-11-20T06:44:06.677Z,99.90
2022-11-20T06:46:09.661Z,99.90
2022-11-20T06:48:11.307Z,99.90
2022-11-20T06:50:13.330Z,99.90
2022-11-20T06:52:15.075Z,99.90
2022-11-20T06:54:16.825Z,99.90
2022-11-20T06:56:18.531Z,99.90
2022-11-20T06:58:20.512Z,99.90
2022-11-20T07:00:23.438Z,99.90
2022-11-20T07:02:25.220Z,99.90
2022-11-20T07:04:26.909Z,99.90
2022-11-20T07:06:28.601Z,99.90
2022-11-20T07:08:30.668Z,99.90
2022-11-20T07:10:32.880Z,99.90
2022-11-20T07:12:34.566Z,99.90
2022-11-20T07:14:36.442Z,99.90
2022-11-20T07:16:38.108Z,99.90
2022-11-20T07:18:39.904Z,99.90
2022-11-20T07:20:41.596Z,99.90
2022-11-20T07:22:43.723Z,99.90
2022-11-20T07:24:46.248Z,99.90
2022-11-20T07:26:50.017Z,99.90
2022-11-20T07:28:51.680Z,99.90
2022-11-20T07:30:54.463Z,99.90
2022-11-20T07:32:57.114Z,99.90
2022-11-20T07:34:58.812Z,99.90
2022-11-20T07:37:00.518Z,99.90
2022-11-20T07:39:02.240Z,99.90
2022-11-20T07:41:04.112Z,99.90
2022-11-20T07:43:05.926Z,99.90
2022-11-20T07:45:08.115Z,99.90
2022-11-20T07:47:10.071Z,99.90
2022-11-20T07:49:11.722Z,99.90
2022-11-20T07:51:14.494Z,99.90
2022-11-20T07:53:21.574Z,99.90
2022-11-20T07:55:23.233Z,99.90
2022-11-20T07:57:28.345Z,99.90
2022-11-20T07:59:30.259Z,99.90
2022-11-20T08:01:31.914Z,99.90
2022-11-20T08:03:34.213Z,99.90
2022-11-20T08:05:35.869Z,99.90
2022-11-20T08:07:42.052Z,99.90
2022-11-20T08:09:43.868Z,99.90
2022-11-20T08:12:04.043Z,99.90
2022-11-20T08:14:14.970Z,99.90
2022-11-20T08:16:16.607Z,99.90
2022-11-20T08:18:34.127Z,99.90
2022-11-20T08:20:36.237Z,99.90
2022-11-20T08:22:38.038Z,99.90
2022-11-20T08:24:39.802Z,99.90
2022-11-20T08:26:41.957Z,99.90
2022-11-20T08:28:44.219Z,99.90
2022-11-20T08:30:47.843Z,99.90
2022-11-20T08:32:49.519Z,99.90
2022-11-20T08:34:51.199Z,99.90
2022-11-20T08:36:52.913Z,99.90
2022-11-20T08:38:56.508Z,99.90
2022-11-20T08:41:17.982Z,99.90
2022-11-20T08:43:19.601Z,99.90
2022-11-20T08:45:21.425Z,99.90
2022-11-20T08:47:23.226Z,99.90
2022-11-20T08:49:25.015Z,99.90
2022-11-20T08:51:26.881Z,99.90
2022-11-20T08:53:29.080Z,99.90
2022-11-20T08:55:30.771Z,99.90
2022-11-20T08:57:33.976Z,99.90
2022-11-20T09:00:05.560Z,99.90
2022-11-20T09:01:57.292Z,99.90
2022-11-20T09:04:00.467Z,99.90
2022-11-20T09:06:07.476Z,99.90
2022-11-20T09:08:09.233Z,99.90
2022-11-20T09:12:32.742Z,99.90
2022-11-20T09:14:34.675Z,99.90
2022-11-20T09:16:36.657Z,99.90
2022-11-20T09:18:38.826Z,99.90
2022-11-20T09:20:40.700Z,99.90
2022-11-20T09:22:42.429Z,99.90
2022-11-20T09:24:44.143Z,99.90
2022-11-20T09:26:45.866Z,99.90
2022-11-20T09:28:47.706Z,99.90
2022-11-20T09:30:49.352Z,99.90
2022-11-20T09:32:51.147Z,99.90
2022-11-20T09:34:52.820Z,99.90
2022-11-20T09:36:54.542Z,99.90
2022-11-20T09:38:57.382Z,99.90
2022-11-20T09:41:06.491Z,99.90
2022-11-20T09:43:34.878Z,99.90
2022-11-20T09:45:51.415Z,99.90
2022-11-20T09:48:00.181Z,99.90
2022-11-20T09:50:16.774Z,99.90
2022-11-20T09:52:49.023Z,99.90
2022-11-20T09:54:51.678Z,99.90
2022-11-20T09:57:01.751Z,99.90
2022-11-20T09:59:07.373Z,99.90
2022-11-20T10:01:12.326Z,99.90
2022-11-20T10:03:30.738Z,99.90
2022-11-20T10:05:46.173Z,99.90
2022-11-20T10:08:21.866Z,99.90
2022-11-20T10:10:44.264Z,99.90
2022-11-20T10:13:23.573Z,99.90
2022-11-20T10:15:39.561Z,99.90
2022-11-20T10:18:11.976Z,99.90
2022-11-20T10:20:25.707Z,99.90
2022-11-20T10:22:42.911Z,99.90
2022-11-20T10:25:09.712Z,99.90
2022-11-20T10:27:35.348Z,99.90
2022-11-20T10:29:42.232Z,99.90
2022-11-20T10:31:48.752Z,99.90
2022-11-20T10:34:11.612Z,99.90
2022-11-20T10:36:47.593Z,99.90
2022-11-20T10:39:05.737Z,99.90
2022-11-20T10:41:25.950Z,99.90
2022-11-20T10:43:34.180Z,99.90
2022-11-20T10:45:50.385Z,99.90
2022-11-20T10:47:55.384Z,99.90
2022-11-20T10:49:59.335Z,99.90
2022-11-20T10:52:13.899Z,99.90
2022-11-20T10:54:18.370Z,99.90
2022-11-20T10:56:29.800Z,99.90
2022-11-20T10:59:04.113Z,99.90
2022-11-20T11:01:17.880Z,99.90
2022-11-20T11:03:29.950Z,99.90
2022-11-20T11:05:42.707Z,99.90
2022-11-20T11:07:46.222Z,99.90
2022-11-20T11:09:59.085Z,99.90
2022-11-20T11:12:06.792Z,99.90
2022-11-20T11:14:14.234Z,99.90
2022-11-20T11:16:28.244Z,99.90
2022-11-20T11:18:33.104Z,99.90
2022-11-20T11:20:34.823Z,99.90
2022-11-20T11:22:54.568Z,99.90
2022-11-20T11:24:56.367Z,99.90
2022-11-20T11:27:16.448Z,99.90
2022-11-20T11:29:20.333Z,99.90
2022-11-20T11:31:34.017Z,99.90
2022-11-20T11:33:35.813Z,99.90
2022-11-20T11:35:50.003Z,99.90
2022-11-20T11:37:56.498Z,99.90
2022-11-20T11:40:25.392Z,99.90
2022-11-20T11:42:20.564Z,99.90
2022-11-20T11:44:41.880Z,99.90
2022-11-20T11:46:57.243Z,99.90
2022-11-20T11:49:20.432Z,99.90
2022-11-20T11:51:22.404Z,99.90
2022-11-20T11:53:28.138Z,99.90
2022-11-20T11:56:11.961Z,99.90
2022-11-20T11:58:44.410Z,99.90
2022-11-20T12:01:18.193Z,99.90
2022-11-20T12:03:28.422Z,99.90
2022-11-20T12:05:47.216Z,99.90
2022-11-20T12:07:52.596Z,99.90
2022-11-20T12:09:58.111Z,99.90
2022-11-20T12:12:11.442Z,99.90
2022-11-20T12:14:24.815Z,99.90
2022-11-20T12:16:26.620Z,99.90
2022-11-20T12:18:29.390Z,99.90
2022-11-20T12:20:42.131Z,99.90
2022-11-20T12:22:51.436Z,99.90
2022-11-20T12:25:05.140Z,99.90
2022-11-20T12:27:25.125Z,99.90
2022-11-20T12:29:44.772Z,99.90
2022-11-20T12:32:12.269Z,99.90
2022-11-20T12:34:16.771Z,99.90
2022-11-20T12:36:38.803Z,99.90
2022-11-20T12:38:55.645Z,99.90
2022-11-20T12:41:12.211Z,99.90
2022-11-20T12:43:46.077Z,99.90
2022-11-20T12:46:24.733Z,99.90
2022-11-20T12:48:53.086Z,99.90
2022-11-20T12:51:21.067Z,99.90
2022-11-20T12:53:41.202Z,99.90
2022-11-20T12:55:51.028Z,99.90
2022-11-20T12:58:05.993Z,99.90
2022-11-20T13:00:08.445Z,99.90
2022-11-20T13:02:21.098Z,1.00
2022-11-20T13:04:28.940Z,1.00
2022-11-20T13:06:30.823Z,1.00
2022-11-20T13:08:45.764Z,1.00
2022-11-20T13:11:11.085Z,1.00
2022-11-20T13:13:21.782Z,1.00
2022-11-20T13:15:43.917Z,1.00
2022-11-20T13:18:12.610Z,1.00
2022-11-20T13:20:17.939Z,1.00
2022-11-20T13:22:26.787Z,1.00
2022-11-20T13:24:31.241Z,1.00
2022-11-20T13:26:33.769Z,1.00
2022-11-20T13:28:36.633Z,1.00
2022-11-20T13:30:51.299Z,1.00
2022-11-20T13:32:57.376Z,1.00
2022-11-20T13:35:02.562Z,1.00
2022-11-20T13:37:07.233Z,1.00
2022-11-20T13:39:10.145Z,1.00
2022-11-20T13:41:30.141Z,1.00
2022-11-20T13:43:38.552Z,1.00
2022-11-20T13:45:40.281Z,1.00
2022-11-20T13:47:49.684Z,1.00
2022-11-20T13:49:52.769Z,1.00
2022-11-20T13:52:09.662Z,1.00
2022-11-20T13:54:28.464Z,1.00
2022-11-20T13:56:53.427Z,1.00
2022-11-20T13:59:15.036Z,1.00
2022-11-20T14:01:26.405Z,1.00
2022-11-20T14:04:04.653Z,1.00
2022-11-20T14:05:59.853Z,94.10
2022-11-20T14:08:06.520Z,99.90
2022-11-20T14:10:25.875Z,99.90
2022-11-20T14:12:33.983Z,99.90
2022-11-20T14:14:37.308Z,99.90
2022-11-20T14:16:40.294Z,1.00
2022-11-20T14:18:42.095Z,1.00
2022-11-20T14:20:44.439Z,1.00
2022-11-20T14:22:50.866Z,1.00
2022-11-20T14:25:16.546Z,1.00
2022-11-20T14:27:21.652Z,1.00
2022-11-20T14:29:46.766Z,1.00
2022-11-20T14:31:54.378Z,99.90
2022-11-20T14:33:57.446Z,99.90
2022-11-20T14:35:59.634Z,99.90
2022-11-20T14:38:02.687Z,1.00
2022-11-20T14:40:23.562Z,1.00
2022-11-20T14:42:27.411Z,1.00
2022-11-20T14:44:35.035Z,1.00
2022-11-20T14:46:36.931Z,1.00
2022-11-20T14:48:40.849Z,1.00
2022-11-20T14:50:42.702Z,1.00
2022-11-20T14:52:56.796Z,1.00
2022-11-20T14:55:02.430Z,1.00
2022-11-20T14:57:05.166Z,1.00
2022-11-20T14:59:08.086Z,1.00
2022-11-20T15:01:14.454Z,1.00
2022-11-20T15:03:17.781Z,1.00
2022-11-20T15:05:22.094Z,1.00
2022-11-20T15:07:29.694Z,1.00
2022-11-20T15:09:31.508Z,1.00
2022-11-20T15:11:35.776Z,1.00
2022-11-20T15:13:39.278Z,1.00
2022-11-20T15:15:56.693Z,1.00
2022-11-20T15:17:59.577Z,1.00
2022-11-20T15:20:03.031Z,1.00
2022-11-20T15:22:10.739Z,1.00
2022-11-20T15:24:12.428Z,1.00
2022-11-20T15:26:20.170Z,1.00
2022-11-20T15:28:43.536Z,9.00
2022-11-20T15:30:46.957Z,3.70
2022-11-20T15:32:48.822Z,1.00
2022-11-20T15:34:51.403Z,1.00
2022-11-20T15:36:53.980Z,1.00
2022-11-20T15:38:55.749Z,32.30
2022-11-20T15:40:57.910Z,22.40
2022-11-20T15:43:11.600Z,46.10
2022-11-20T15:45:15.195Z,57.60
2022-11-20T15:47:18.227Z,49.80
2022-11-20T15:49:19.974Z,60.00
2022-11-20T15:51:40.370Z,73.90
2022-11-20T15:53:43.239Z,91.60
2022-11-20T15:55:44.934Z,92.50
2022-11-20T15:57:46.877Z,87.60
2022-11-20T15:59:48.545Z,81.50
2022-11-20T16:01:50.395Z,97.40
2022-11-20T16:03:52.221Z,98.40
2022-11-20T16:05:54.037Z,99.90
2022-11-20T16:07:55.784Z,99.90
2022-11-20T16:09:57.615Z,99.90
2022-11-20T16:12:02.599Z,99.90
2022-11-20T16:14:24.835Z,99.90
2022-11-20T16:16:35.563Z,99.90
2022-11-20T16:18:37.332Z,99.90
2022-11-20T16:20:39.235Z,99.90
2022-11-20T16:22:40.856Z,99.90
2022-11-20T16:24:42.606Z,99.90
2022-11-20T16:26:44.368Z,99.90
2022-11-20T16:28:46.240Z,99.90
2022-11-20T16:30:48.483Z,99.90
2022-11-20T16:32:50.489Z,99.90
2022-11-20T16:34:52.563Z,99.90
2022-11-20T16:36:54.245Z,99.90
2022-11-20T16:38:58.092Z,99.90
2022-11-20T16:41:04.619Z,99.90
2022-11-20T16:43:10.781Z,99.90
2022-11-20T16:45:12.602Z,99.90
2022-11-20T16:47:14.501Z,99.90
2022-11-20T16:49:16.448Z,99.90
2022-11-20T16:51:18.089Z,99.90
2022-11-20T16:53:21.584Z,99.90
2022-11-20T16:55:24.002Z,99.90
2022-11-20T16:57:28.150Z,99.90
2022-11-20T16:59:29.963Z,99.90
2022-11-20T17:01:32.900Z,99.90
2022-11-20T17:03:34.710Z,99.90
2022-11-20T17:05:36.479Z,99.90
2022-11-20T17:07:39.334Z,99.90
2022-11-20T17:09:41.380Z,99.90
2022-11-20T17:11:43.464Z,99.90
2022-11-20T17:13:45.986Z,99.90
2022-11-20T17:15:47.834Z,99.90
2022-11-20T17:17:49.787Z,99.90
2022-11-20T17:19:51.531Z,99.90
2022-11-20T17:21:53.307Z,99.90
2022-11-20T17:23:55.076Z,99.90
2022-11-20T17:26:07.325Z,99.90
2022-11-20T17:28:09.763Z,99.90
2022-11-20T17:30:11.725Z,99.90
2022-11-20T17:32:13.673Z,99.90
2022-11-20T17:34:16.472Z,99.90
2022-11-20T17:36:19.310Z,99.90
2022-11-20T17:38:21.105Z,99.90
2022-11-20T17:40:27.126Z,99.90
2022-11-20T17:42:36.965Z,99.90
2022-11-20T17:44:38.765Z,99.90
2022-11-20T17:46:40.730Z,99.90
2022-11-20T17:48:44.191Z,99.90
2022-11-20T17:50:45.890Z,99.90
2022-11-20T17:52:47.634Z,99.90
2022-11-20T17:54:49.379Z,99.90
2022-11-20T17:57:09.580Z,99.90
2022-11-20T17:59:13.947Z,99.90
2022-11-20T18:01:17.051Z,99.90
2022-11-20T18:03:18.776Z,96.40
2022-11-20T18:05:20.464Z,99.90
2022-11-20T18:07:22.466Z,83.50
2022-11-20T18:09:24.449Z,99.90
2022-11-20T18:11:28.775Z,44.90
2022-11-20T18:13:50.500Z,80.90
2022-11-20T18:15:52.234Z,35.40
2022-11-20T18:17:54.166Z,46.10
2022-11-20T18:20:21.836Z,28.90
2022-11-20T18:22:19.343Z,29.20
2022-11-20T18:24:21.800Z,28.90
2022-11-20T18:26:25.203Z,28.60
2022-11-20T18:28:26.867Z,21.80
2022-11-20T18:30:28.839Z,41.10
2022-11-20T18:32:30.855Z,27.80
2022-11-20T18:34:32.633Z,28.00
2022-11-20T18:36:34.337Z,34.30
2022-11-20T18:38:36.515Z,20.20
2022-11-20T18:40:38.345Z,14.90
2022-11-20T18:42:58.485Z,26.30
2022-11-20T18:45:01.376Z,28.00
2022-11-20T18:47:09.591Z,17.10
2022-11-20T18:49:15.595Z,18.50
2022-11-20T18:51:17.315Z,20.40
2022-11-20T18:53:18.952Z,44.40
2022-11-20T18:55:24.251Z,22.60
2022-11-20T18:57:27.681Z,42.20
2022-11-20T18:59:29.608Z,16.10
2022-11-20T19:01:31.665Z,40.00
2022-11-20T19:03:34.164Z,45.40
2022-11-20T19:05:36.532Z,57.60
2022-11-20T19:07:38.217Z,99.90
2022-11-20T19:09:41.478Z,97.40
2022-11-20T19:11:44.355Z,72.00
2022-11-20T19:13:46.919Z,99.90
2022-11-20T19:15:48.649Z,99.90
2022-11-20T19:17:50.296Z,99.90
2022-11-20T19:19:54.916Z,99.90
2022-11-20T19:21:56.722Z,99.90
2022-11-20T19:24:01.741Z,99.90
2022-11-20T19:26:04.548Z,99.90
2022-11-20T19:28:06.208Z,99.90
2022-11-20T19:30:08.528Z,99.90
2022-11-20T19:32:10.285Z,99.90
2022-11-20T19:34:12.084Z,99.90
2022-11-20T19:36:14.861Z,99.90
2022-11-20T19:38:16.548Z,99.90
2022-11-20T19:40:18.218Z,99.90
2022-11-20T19:42:20.137Z,99.90
2022-11-20T19:44:21.953Z,99.90
2022-11-20T19:46:24.383Z,99.90
2022-11-20T19:48:26.331Z,99.90
2022-11-20T19:50:28.048Z,99.90
2022-11-20T19:52:29.797Z,99.90
2022-11-20T19:54:31.669Z,99.90
2022-11-20T19:56:34.690Z,99.90
2022-11-20T19:58:36.880Z,99.90
2022-11-20T20:00:38.630Z,99.90
2022-11-20T20:02:40.407Z,99.90
2022-11-20T20:04:42.157Z,99.90
2022-11-20T20:06:43.940Z,99.90
2022-11-20T20:08:45.612Z,99.90
2022-11-20T20:10:47.261Z,99.90
2022-11-20T20:12:49.055Z,99.90
2022-11-20T20:14:50.724Z,99.90
2022-11-20T20:16:54.515Z,99.90
2022-11-20T20:19:03.791Z,99.90
2022-11-20T20:21:11.369Z,99.90
2022-11-20T20:23:13.135Z,99.90
2022-11-20T20:25:14.876Z,99.90
2022-11-20T20:27:16.703Z,99.90
2022-11-20T20:29:20.664Z,99.90
2022-11-20T20:31:27.041Z,99.90
2022-11-20T20:33:28.795Z,99.90
2022-11-20T20:35:30.552Z,99.90
2022-11-20T20:37:32.425Z,99.90
2022-11-20T20:39:34.335Z,99.90
2022-11-20T20:41:36.016Z,99.90
2022-11-20T20:43:56.760Z,99.90
2022-11-20T20:45:58.552Z,99.90
2022-11-20T20:48:00.296Z,99.90
2022-11-20T20:50:03.192Z,99.90
2022-11-20T20:52:05.059Z,99.90
2022-11-20T20:54:06.790Z,99.90
2022-11-20T20:56:09.605Z,99.90
2022-11-20T20:58:11.224Z,99.90
2022-11-20T21:00:13.197Z,99.90
2022-11-20T21:02:15.063Z,99.90
2022-11-20T21:04:16.771Z,99.90
2022-11-20T21:06:18.442Z,99.90
2022-11-20T21:08:22.868Z,99.90
2022-11-20T21:10:24.661Z,99.90
2022-11-20T21:12:26.368Z,99.90
2022-11-20T21:14:28.180Z,99.90
2022-11-20T21:16:41.074Z,99.90
2022-11-20T21:18:43.388Z,99.90
2022-11-20T21:21:05.063Z,99.90
2022-11-20T21:23:10.535Z,99.90
2022-11-20T21:25:12.202Z,99.90
2022-11-20T21:27:13.844Z,99.90
2022-11-20T21:29:16.303Z,99.90
2022-11-20T21:31:24.765Z,99.90
2022-11-20T21:33:26.424Z,99.90
2022-11-20T21:35:28.222Z,99.90
2022-11-20T21:37:29.963Z,99.90
2022-11-20T21:39:31.644Z,99.90
2022-11-20T21:41:33.839Z,99.90
2022-11-20T21:43:36.211Z,99.90
2022-11-20T21:45:38.024Z,99.90
2022-11-20T21:47:39.753Z,99.90
2022-11-20T21:49:41.376Z,99.90
2022-11-20T21:51:43.076Z,99.90
2022-11-20T21:53:46.227Z,99.90
2022-11-20T21:55:55.629Z,99.90
2022-11-20T21:57:57.310Z,99.90
2022-11-20T21:59:58.969Z,99.90
2022-11-20T22:02:00.729Z,99.90
2022-11-20T22:04:02.734Z,99.90
2022-11-20T22:06:05.433Z,99.90
2022-11-20T22:08:07.272Z,99.90
2022-11-20T22:10:09.530Z,99.90
2022-11-20T22:12:12.863Z,99.90
2022-11-20T22:14:20.332Z,99.90
2022-11-20T22:16:22.945Z,99.90
2022-11-20T22:18:24.629Z,99.90
2022-11-20T22:20:26.350Z,99.90
2022-11-20T22:22:28.175Z,99.90
2022-11-20T22:24:29.858Z,99.90
2022-11-20T22:26:39.895Z,99.90
2022-11-20T22:28:42.499Z,99.90
2022-11-20T22:30:44.227Z,99.90
2022-11-20T22:32:45.920Z,99.90
2022-11-20T22:34:47.615Z,99.90
2022-11-20T22:36:49.299Z,99.90
2022-11-20T22:38:51.923Z,99.90
2022-11-20T22:40:53.686Z,99.90
2022-11-20T22:42:55.308Z,99.90
2022-11-20T22:44:56.980Z,99.90
2022-11-20T22:46:58.720Z,99.90
2022-11-20T22:49:02.608Z,99.90
2022-11-20T22:51:09.208Z,99.90
2022-11-20T22:53:10.935Z,99.90
2022-11-20T22:55:16.257Z,99.90
2022-11-20T22:57:18.218Z,99.90
2022-11-20T22:59:19.953Z,99.90
2022-11-20T23:01:22.928Z,99.90
2022-11-20T23:03:24.819Z,99.90
2022-11-20T23:05:26.500Z,99.90
2022-11-20T23:07:28.372Z,99.90
2022-11-20T23:09:30.090Z,99.90
2022-11-20T23:11:32.720Z,99.90
2022-11-20T23:13:35.276Z,99.90
2022-11-20T23:15:37.130Z,99.90
2022-11-20T23:17:38.780Z,99.90
2022-11-20T23:19:40.699Z,99.90
2022-11-20T23:21:43.597Z,99.90
2022-11-20T23:23:49.975Z,99.90
2022-11-20T23:25:51.591Z,99.90
2022-11-20T23:27:54.428Z,99.90
2022-11-20T23:29:58.933Z,99.90
2022-11-20T23:32:00.783Z,99.90
2022-11-20T23:34:02.563Z,99.90
2022-11-20T23:36:04.659Z,99.90
2022-11-20T23:38:06.336Z,99.90
2022-11-20T23:40:08.708Z,99.90
2022-11-20T23:42:10.453Z,99.90
2022-11-20T23:44:12.105Z,99.90
2022-11-20T23:46:16.650Z,99.90
2022-11-20T23:48:20.194Z,99.90
2022-11-20T23:50:22.141Z,99.90
2022-11-20T23:52:26.381Z,99.90
2022-11-20T23:54:28.303Z,99.90
2022-11-20T23:56:30.328Z,99.90
2022-11-20T23:58:35.184Z,99.90
